createdAt,value
2018-05-18T00:01:51.902Z,17.08
2018-05-18T00:04:19.297Z,17.02
2018-05-18T00:06:46.703Z,16.40
2018-05-18T00:09:14.037Z,15.35
2018-05-18T00:11:41.411Z,15.55
2018-05-18T00:14:08.990Z,17.23
2018-05-18T00:16:36.309Z,16.20
2018-05-18T00:19:04.015Z,15.80
2018-05-18T00:21:31.328Z,16.60
2018-05-18T00:23:58.717Z,16.95
2018-05-18T00:26:26.035Z,16.75
2018-05-18T00:28:53.633Z,18.33
2018-05-18T00:31:20.958Z,16.43
2018-05-18T00:33:48.290Z,18.20
2018-05-18T00:36:15.909Z,17.10
2018-05-18T00:38:43.469Z,18.30
2018-05-18T00:41:11.131Z,17.60
2018-05-18T00:43:38.450Z,17.87
2018-05-18T00:46:05.764Z,17.15
2018-05-18T00:48:33.086Z,17.95
2018-05-18T00:51:00.431Z,17.80
2018-05-18T00:53:27.757Z,16.80
2018-05-18T00:55:55.081Z,17.60
2018-05-18T00:58:22.406Z,18.00
2018-05-18T01:00:49.772Z,16.40
2018-05-18T01:03:17.134Z,17.42
2018-05-18T01:05:44.470Z,16.35
2018-05-18T01:08:11.818Z,17.50
2018-05-18T01:10:39.156Z,17.73
2018-05-18T01:13:06.482Z,18.60
2018-05-18T01:15:34.106Z,18.60
2018-05-18T01:18:01.466Z,18.23
2018-05-18T01:20:28.788Z,18.45
2018-05-18T01:22:56.168Z,17.83
2018-05-18T01:25:23.726Z,17.42
2018-05-18T01:27:51.448Z,17.10
2018-05-18T01:30:18.739Z,17.75
2018-05-18T01:32:46.062Z,17.00
2018-05-18T01:35:13.662Z,16.57
2018-05-18T01:37:41.011Z,17.30
2018-05-18T01:40:08.683Z,17.90
2018-05-18T01:42:36.034Z,15.73
2018-05-18T01:45:03.367Z,16.10
2018-05-18T01:47:30.715Z,15.63
2018-05-18T01:49:58.307Z,15.55
2018-05-18T01:52:25.660Z,15.90
2018-05-18T01:54:53.019Z,15.95
2018-05-18T01:57:20.325Z,14.60
2018-05-18T01:59:47.930Z,15.40
2018-05-18T02:02:15.596Z,14.30
2018-05-18T02:04:43.255Z,13.85
2018-05-18T02:07:10.818Z,14.00
2018-05-18T02:09:38.413Z,14.03
2018-05-18T02:12:06.039Z,13.57
2018-05-18T02:14:33.702Z,12.90
2018-05-18T02:17:01.367Z,12.50
2018-05-18T02:19:28.693Z,12.40
2018-05-18T02:21:56.048Z,11.70
2018-05-18T02:24:23.630Z,11.57
2018-05-18T02:26:50.979Z,12.13
2018-05-18T02:29:18.347Z,11.90
2018-05-18T02:31:45.700Z,12.23
2018-05-18T02:34:13.026Z,11.35
2018-05-18T02:36:40.614Z,12.00
2018-05-18T02:39:08.278Z,11.60
2018-05-18T02:41:35.861Z,11.75
2018-05-18T02:44:03.427Z,11.57
2018-05-18T02:46:30.764Z,11.10
2018-05-18T02:48:58.143Z,11.60
2018-05-18T02:51:25.458Z,11.80
2018-05-18T02:53:53.131Z,12.23
2018-05-18T02:56:20.792Z,11.70
2018-05-18T02:58:48.176Z,12.30
2018-05-18T03:01:15.524Z,12.37
2018-05-18T03:03:42.876Z,11.93
2018-05-18T03:06:10.523Z,13.00
2018-05-18T03:08:38.184Z,13.40
2018-05-18T03:11:05.535Z,12.13
2018-05-18T03:13:32.900Z,12.80
2018-05-18T03:16:00.243Z,13.10
2018-05-18T03:18:27.603Z,13.62
2018-05-18T03:20:54.974Z,13.52
2018-05-18T03:23:22.619Z,14.73
2018-05-18T03:25:49.938Z,16.27
2018-05-18T03:28:17.741Z,14.80
2018-05-18T03:30:45.127Z,15.77
2018-05-18T03:33:12.757Z,14.38
2018-05-18T03:35:40.124Z,14.10
2018-05-18T03:38:07.457Z,14.60
2018-05-18T03:40:34.786Z,14.35
2018-05-18T03:43:02.113Z,14.30
2018-05-18T03:45:29.474Z,13.32
2018-05-18T03:47:57.096Z,12.95
2018-05-18T03:50:24.759Z,13.03
2018-05-18T03:52:52.077Z,14.63
2018-05-18T03:55:19.470Z,13.00
2018-05-18T03:57:47.132Z,14.38
2018-05-18T04:00:14.794Z,13.45
2018-05-18T04:02:48.196Z,13.62
2018-05-18T04:05:21.424Z,13.48
2018-05-18T04:07:54.951Z,13.90
2018-05-18T04:10:22.313Z,12.50
2018-05-18T04:12:49.558Z,13.70
2018-05-18T04:15:17.253Z,12.50
2018-05-18T04:17:44.569Z,11.82
2018-05-18T04:20:11.928Z,12.45
2018-05-18T04:22:39.266Z,11.82
2018-05-18T04:25:06.879Z,12.57
2018-05-18T04:27:34.231Z,12.73
2018-05-18T04:30:01.576Z,12.88
2018-05-18T04:32:28.889Z,11.68
2018-05-18T04:34:56.264Z,12.93
2018-05-18T04:37:23.610Z,12.32
2018-05-18T04:39:50.950Z,12.18
2018-05-18T04:42:18.262Z,13.50
2018-05-18T04:44:45.610Z,14.67
2018-05-18T04:47:13.291Z,14.20
2018-05-18T04:49:40.616Z,13.27
2018-05-18T04:52:08.198Z,13.60
2018-05-18T04:54:35.525Z,13.35
2018-05-18T04:57:03.215Z,13.57
2018-05-18T04:59:30.769Z,13.73
2018-05-18T05:01:58.077Z,14.15
2018-05-18T05:04:25.685Z,15.00
2018-05-18T05:06:53.007Z,15.00
2018-05-18T05:09:20.374Z,13.88
2018-05-18T05:11:47.734Z,14.63
2018-05-18T05:14:15.076Z,13.93
2018-05-18T05:16:42.522Z,15.07
2018-05-18T05:19:09.789Z,13.75
2018-05-18T05:21:37.152Z,13.43
2018-05-18T05:24:04.503Z,13.83
2018-05-18T05:26:32.085Z,14.75
2018-05-18T05:28:59.755Z,14.68
2018-05-18T05:31:27.122Z,13.65
2018-05-18T05:33:54.479Z,16.23
2018-05-18T05:36:21.833Z,13.40
2018-05-18T05:38:49.178Z,14.25
2018-05-18T05:41:16.518Z,13.70
2018-05-18T05:43:43.846Z,13.13
2018-05-18T05:46:11.204Z,13.10
2018-05-18T05:48:38.526Z,13.50
2018-05-18T05:51:06.155Z,13.50
2018-05-18T05:53:33.494Z,12.23
2018-05-18T05:56:01.066Z,13.07
2018-05-18T05:58:28.453Z,13.55
2018-05-18T06:00:56.091Z,13.50
2018-05-18T06:03:23.430Z,13.30
2018-05-18T06:05:50.791Z,13.00
2018-05-18T06:08:18.109Z,12.63
2018-05-18T06:10:45.482Z,12.83
2018-05-18T06:13:13.070Z,11.88
2018-05-18T06:15:40.731Z,11.50
2018-05-18T06:18:08.080Z,12.73
2018-05-18T06:20:35.429Z,11.73
2018-05-18T06:23:02.790Z,12.10
2018-05-18T06:25:30.181Z,11.65
2018-05-18T06:27:57.508Z,12.07
2018-05-18T06:30:24.858Z,12.82
2018-05-18T06:32:52.418Z,10.75
2018-05-18T06:35:19.767Z,10.63
2018-05-18T06:37:47.119Z,11.07
2018-05-18T06:40:14.482Z,12.50
2018-05-18T06:42:41.818Z,12.57
2018-05-18T06:45:09.171Z,13.13
2018-05-18T06:47:36.859Z,11.05
2018-05-18T06:50:04.173Z,11.50
2018-05-18T06:52:31.619Z,12.20
2018-05-18T06:54:58.857Z,11.27
2018-05-18T06:57:26.487Z,11.93
2018-05-18T06:59:54.143Z,10.40
2018-05-18T07:02:21.811Z,12.77
2018-05-18T07:04:49.155Z,12.30
2018-05-18T07:07:16.503Z,11.27
2018-05-18T07:09:43.862Z,17.20
2018-05-18T07:12:11.220Z,10.65
2018-05-18T07:14:38.529Z,10.35
2018-05-18T07:17:05.864Z,10.18
2018-05-18T07:19:33.206Z,10.73
2018-05-18T07:22:00.854Z,11.32
2018-05-18T07:24:28.199Z,10.65
2018-05-18T07:26:55.883Z,9.85
2018-05-18T07:29:23.232Z,9.98
2018-05-18T07:31:50.609Z,9.15
2018-05-18T07:34:17.909Z,9.88
2018-05-18T07:36:45.605Z,9.93
2018-05-18T07:41:41.427Z,10.07
2018-05-18T07:44:08.748Z,10.20
2018-05-18T07:46:36.074Z,8.90
2018-05-18T07:49:03.422Z,9.40
2018-05-18T07:51:30.790Z,9.85
2018-05-18T07:53:58.181Z,9.45
2018-05-18T07:56:25.502Z,10.02
2018-05-18T07:58:52.843Z,9.15
2018-05-18T08:01:20.487Z,9.93
2018-05-18T08:03:47.805Z,10.05
2018-05-18T08:06:15.161Z,9.90
2018-05-18T08:08:42.473Z,10.27
2018-05-18T08:11:09.839Z,10.40
2018-05-18T08:13:37.149Z,9.77
2018-05-18T08:16:04.518Z,10.23
2018-05-18T08:18:32.173Z,10.73
2018-05-18T08:20:59.489Z,9.23
2018-05-18T08:23:33.135Z,10.07
2018-05-18T08:26:00.515Z,11.93
2018-05-18T08:28:27.891Z,11.00
2018-05-18T08:31:01.446Z,10.18
2018-05-18T08:33:28.773Z,9.52
2018-05-18T08:35:56.094Z,10.10
2018-05-18T08:38:23.718Z,9.90
2018-05-18T08:40:51.119Z,10.18
2018-05-18T08:43:18.470Z,9.45
2018-05-18T08:45:45.808Z,9.32
2018-05-18T08:48:13.450Z,7.73
2018-05-18T08:50:41.030Z,9.82
2018-05-18T08:53:08.342Z,9.30
2018-05-18T08:55:35.693Z,9.68
2018-05-18T08:58:03.270Z,9.02
2018-05-18T09:00:30.695Z,9.00
2018-05-18T09:02:57.982Z,10.18
2018-05-18T09:05:25.285Z,9.82
2018-05-18T09:07:52.606Z,9.48
2018-05-18T09:10:19.917Z,8.90
2018-05-18T09:12:47.285Z,10.03
2018-05-18T09:15:14.598Z,10.52
2018-05-18T09:17:41.952Z,9.82
2018-05-18T09:20:09.292Z,9.70
2018-05-18T09:22:36.931Z,8.32
2018-05-18T09:25:04.286Z,9.77
2018-05-18T09:27:31.951Z,9.07
2018-05-18T09:29:59.611Z,9.30
2018-05-18T09:32:26.974Z,8.20
2018-05-18T09:34:54.296Z,8.63
2018-05-18T09:37:21.644Z,8.73
2018-05-18T09:39:49.251Z,8.90
2018-05-18T09:42:16.894Z,8.83
2018-05-18T09:44:44.454Z,8.13
2018-05-18T09:47:19.917Z,10.03
2018-05-18T09:50:00.651Z,9.45
2018-05-18T09:52:39.830Z,8.80
2018-05-18T09:55:09.378Z,9.57
2018-05-18T09:57:36.550Z,8.75
2018-05-18T10:00:03.896Z,9.63
2018-05-18T10:02:31.234Z,9.43
2018-05-18T10:04:58.605Z,10.40
2018-05-18T10:07:25.973Z,9.40
2018-05-18T10:09:53.647Z,9.65
2018-05-18T10:12:21.182Z,9.10
2018-05-18T10:14:48.453Z,9.50
2018-05-18T10:17:15.778Z,10.38
2018-05-18T10:19:43.127Z,10.27
2018-05-18T10:22:10.504Z,10.43
2018-05-18T10:24:37.839Z,9.57
2018-05-18T10:27:05.466Z,9.82
2018-05-18T10:29:32.875Z,9.90
2018-05-18T10:32:00.202Z,11.02
2018-05-18T10:34:27.694Z,10.77
2018-05-18T10:36:54.996Z,9.63
2018-05-18T10:39:22.340Z,10.13
2018-05-18T10:41:49.911Z,9.32
2018-05-18T10:44:17.667Z,9.60
2018-05-18T10:46:45.926Z,9.88
2018-05-18T10:49:13.266Z,9.05
2018-05-18T10:51:40.738Z,9.40
2018-05-18T10:54:09.058Z,9.73
2018-05-18T10:56:36.362Z,9.05
2018-05-18T10:59:03.718Z,9.88
2018-05-18T11:01:31.022Z,9.65
2018-05-18T11:03:58.357Z,9.47
2018-05-18T11:06:25.696Z,9.30
2018-05-18T11:08:53.074Z,9.10
2018-05-18T11:11:20.416Z,8.60
2018-05-18T11:13:48.062Z,8.55
2018-05-18T11:16:15.395Z,8.43
2018-05-18T11:18:43.075Z,8.50
2018-05-18T11:21:10.414Z,8.00
2018-05-18T11:23:37.989Z,7.70
2018-05-18T11:26:05.298Z,8.20
2018-05-18T11:28:32.693Z,8.27
2018-05-18T11:30:59.994Z,8.20
2018-05-18T11:33:27.317Z,7.37
2018-05-18T11:35:54.667Z,7.30
2018-05-18T11:38:22.222Z,7.53
2018-05-18T11:40:49.750Z,8.00
2018-05-18T11:43:17.111Z,8.15
2018-05-18T11:45:44.646Z,7.87
2018-05-18T11:48:12.250Z,8.43
2018-05-18T11:50:39.562Z,11.25
2018-05-18T11:53:06.897Z,9.48
2018-05-18T11:55:34.206Z,8.60
2018-05-18T11:58:01.887Z,7.93
2018-05-18T12:00:29.422Z,8.15
2018-05-18T12:02:57.082Z,8.00
2018-05-18T12:05:24.347Z,8.05
2018-05-18T12:07:52.023Z,8.02
2018-05-18T12:10:19.344Z,8.10
2018-05-18T12:12:46.675Z,8.90
2018-05-18T12:15:14.023Z,8.80
2018-05-18T12:17:41.648Z,8.35
2018-05-18T12:20:09.311Z,8.32
2018-05-18T12:22:36.975Z,10.10
2018-05-18T12:25:04.326Z,9.25
2018-05-18T12:27:31.664Z,8.80
2018-05-18T12:29:59.024Z,9.52
2018-05-18T12:32:26.594Z,8.90
2018-05-18T12:34:53.962Z,9.27
2018-05-18T12:37:21.309Z,8.80
2018-05-18T12:39:48.966Z,8.63
2018-05-18T12:42:16.274Z,8.35
2018-05-18T12:44:43.725Z,8.60
2018-05-18T12:47:11.063Z,10.20
2018-05-18T12:49:38.699Z,9.90
2018-05-18T12:52:06.358Z,12.10
2018-05-18T12:54:33.711Z,8.80
2018-05-18T12:57:01.059Z,8.80
2018-05-18T12:59:28.503Z,10.10
2018-05-18T13:01:56.088Z,9.25
2018-05-18T13:04:23.410Z,9.95
2018-05-18T13:06:50.762Z,10.70
2018-05-18T13:09:18.090Z,9.68
2018-05-18T13:11:45.427Z,9.82
2018-05-18T13:14:12.771Z,9.38
2018-05-18T13:16:40.119Z,9.63
2018-05-18T13:19:07.780Z,9.30
2018-05-18T13:21:35.107Z,8.45
2018-05-18T13:24:02.467Z,9.30
2018-05-18T13:26:30.048Z,9.80
2018-05-18T13:28:57.399Z,9.15
2018-05-18T13:31:24.730Z,10.10
2018-05-18T13:33:52.320Z,9.13
2018-05-18T13:36:19.679Z,9.38
2018-05-18T13:38:47.060Z,8.40
2018-05-18T13:41:14.373Z,8.77
2018-05-18T13:43:41.719Z,9.02
2018-05-18T13:46:09.075Z,8.70
2018-05-18T13:48:36.398Z,9.40
2018-05-18T13:51:03.721Z,9.20
2018-05-18T13:53:31.088Z,8.90
2018-05-18T13:55:58.723Z,8.77
2018-05-18T13:58:26.072Z,9.43
2018-05-18T14:00:53.430Z,9.40
2018-05-18T14:03:21.097Z,8.88
2018-05-18T14:05:48.414Z,8.95
2018-05-18T14:08:15.767Z,8.93
2018-05-18T14:10:43.145Z,9.20
2018-05-18T14:13:10.504Z,9.23
2018-05-18T14:15:38.095Z,9.45
2018-05-18T14:18:05.437Z,9.40
2018-05-18T14:20:32.807Z,9.47
2018-05-18T14:23:00.350Z,8.35
2018-05-18T14:25:27.670Z,9.80
2018-05-18T14:27:54.978Z,8.30
2018-05-18T14:30:22.301Z,8.97
2018-05-18T14:32:49.975Z,8.13
2018-05-18T14:35:17.318Z,8.80
2018-05-18T14:37:44.890Z,8.70
2018-05-18T14:40:12.247Z,7.93
2018-05-18T14:42:39.902Z,8.20
2018-05-18T14:45:07.629Z,9.00
2018-05-18T14:47:34.958Z,8.40
2018-05-18T14:50:02.582Z,8.65
2018-05-18T14:52:29.902Z,8.07
2018-05-18T14:54:57.242Z,7.50
2018-05-18T14:57:24.860Z,8.00
2018-05-18T14:59:52.244Z,7.73
2018-05-18T15:02:19.874Z,8.13
2018-05-18T15:04:47.422Z,8.20
2018-05-18T15:07:14.775Z,8.13
2018-05-18T15:09:42.153Z,9.30
2018-05-18T15:12:09.487Z,8.50
2018-05-18T15:14:36.827Z,8.70
2018-05-18T15:17:04.541Z,8.63
2018-05-18T15:19:31.904Z,8.57
2018-05-18T15:21:59.255Z,8.55
2018-05-18T15:24:26.891Z,7.75
2018-05-18T15:26:54.215Z,8.18
2018-05-18T15:29:21.518Z,8.20
2018-05-18T15:31:48.850Z,8.27
2018-05-18T15:34:16.154Z,8.20
2018-05-18T15:36:43.702Z,8.07
2018-05-18T15:39:11.036Z,7.60
2018-05-18T15:41:38.391Z,7.63
2018-05-18T15:44:05.930Z,8.63
2018-05-18T15:46:33.319Z,7.30
2018-05-18T15:49:00.862Z,8.57
2018-05-18T15:51:28.227Z,7.22
2018-05-18T15:53:55.556Z,7.85
2018-05-18T15:56:22.900Z,7.32
2018-05-18T15:58:50.225Z,7.60
2018-05-18T16:01:17.831Z,7.37
2018-05-18T16:03:45.150Z,7.57
2018-05-18T16:06:12.538Z,8.10
2018-05-18T16:08:39.846Z,9.07
2018-05-18T16:11:07.203Z,8.27
2018-05-18T16:13:34.539Z,7.00
2018-05-18T16:16:01.870Z,6.80
2018-05-18T16:18:29.219Z,7.22
2018-05-18T16:20:56.544Z,6.60
2018-05-18T16:23:23.879Z,7.68
2018-05-18T16:25:51.242Z,8.68
2018-05-18T16:28:18.558Z,7.35
2018-05-18T16:30:46.197Z,7.57
2018-05-18T16:33:13.502Z,7.00
2018-05-18T16:35:40.848Z,7.45
2018-05-18T16:38:08.423Z,6.72
2018-05-18T16:40:35.761Z,7.32
2018-05-18T16:43:03.073Z,6.50
2018-05-18T16:45:30.637Z,6.70
2018-05-18T16:47:57.986Z,6.50
2018-05-18T16:50:25.528Z,7.70
2018-05-18T16:52:53.145Z,6.93
2018-05-18T16:55:20.744Z,7.95
2018-05-18T16:57:48.142Z,7.72
2018-05-18T17:00:15.457Z,8.43
2018-05-18T17:02:43.117Z,7.47
2018-05-18T17:05:10.641Z,7.10
2018-05-18T17:07:38.191Z,6.67
2018-05-18T17:10:05.835Z,8.23
2018-05-18T17:12:33.444Z,7.40
2018-05-18T17:15:01.150Z,9.73
2018-05-18T17:17:28.700Z,7.60
2018-05-18T17:19:56.070Z,7.55
2018-05-18T17:22:23.482Z,7.22
2018-05-18T17:24:51.088Z,7.23
2018-05-18T17:27:18.445Z,8.35
2018-05-18T17:29:45.762Z,8.32
2018-05-18T17:32:13.081Z,7.63
2018-05-18T17:34:40.707Z,8.07
2018-05-18T17:37:08.268Z,10.30
2018-05-18T17:39:35.930Z,8.40
2018-05-18T17:42:03.593Z,9.55
2018-05-18T17:44:30.923Z,8.15
2018-05-18T17:46:58.620Z,8.55
2018-05-18T17:49:25.917Z,8.25
2018-05-18T17:51:53.512Z,7.97
2018-05-18T17:54:20.895Z,8.98
2018-05-18T17:56:48.443Z,8.27
2018-05-18T17:59:15.782Z,8.90
2018-05-18T18:01:43.465Z,7.70
2018-05-18T18:04:10.994Z,8.95
2018-05-18T18:06:38.355Z,8.75
2018-05-18T18:09:05.935Z,8.30
2018-05-18T18:11:33.250Z,7.57
2018-05-18T18:14:00.932Z,8.32
2018-05-18T18:16:28.166Z,8.27
2018-05-18T18:18:55.531Z,8.40
2018-05-18T18:21:22.867Z,8.35
2018-05-18T18:23:50.215Z,9.18
2018-05-18T18:26:17.754Z,7.80
2018-05-18T18:28:45.337Z,7.25
2018-05-18T18:31:12.700Z,7.32
2018-05-18T18:33:40.026Z,8.05
2018-05-18T18:36:07.339Z,6.78
2018-05-18T18:38:34.687Z,6.90
2018-05-18T18:41:01.999Z,8.23
2018-05-18T18:43:29.587Z,8.63
2018-05-18T18:45:56.960Z,7.62
2018-05-18T18:48:24.306Z,8.02
2018-05-18T18:50:51.962Z,8.13
2018-05-18T18:53:19.311Z,7.43
2018-05-18T18:55:46.638Z,6.77
2018-05-18T18:58:14.223Z,8.05
2018-05-18T19:00:41.555Z,7.60
2018-05-18T19:03:09.110Z,6.33
2018-05-18T19:05:36.672Z,7.00
2018-05-18T19:08:04.332Z,7.00
2018-05-18T19:10:32.067Z,7.28
2018-05-18T19:12:59.418Z,12.57
2018-05-18T19:15:27.020Z,10.00
2018-05-18T19:17:54.379Z,7.57
2018-05-18T19:20:21.713Z,7.10
2018-05-18T19:22:49.064Z,6.80
2018-05-18T19:25:16.720Z,6.70
2018-05-18T19:27:44.049Z,7.57
2018-05-18T19:30:11.631Z,7.40
2018-05-18T19:32:38.953Z,6.50
2018-05-18T19:35:06.295Z,6.10
2018-05-18T19:37:33.622Z,7.10
2018-05-18T19:40:00.966Z,6.30
2018-05-18T19:42:28.502Z,7.45
2018-05-18T19:44:55.855Z,7.37
2018-05-18T19:47:23.207Z,7.60
2018-05-18T19:49:50.528Z,6.75
2018-05-18T19:52:17.866Z,7.22
2018-05-18T19:54:45.223Z,6.55
2018-05-18T19:57:12.588Z,6.62
2018-05-18T19:59:39.927Z,5.43
2018-05-18T20:02:07.254Z,6.70
2018-05-18T20:04:34.905Z,6.30
2018-05-18T20:07:02.244Z,6.65
2018-05-18T20:09:29.599Z,7.10
2018-05-18T20:11:57.289Z,6.82
2018-05-18T20:14:24.942Z,7.18
2018-05-18T20:16:52.502Z,5.90
2018-05-18T20:19:19.851Z,6.85
2018-05-18T20:21:47.418Z,7.00
2018-05-18T20:24:14.741Z,7.32
2018-05-18T20:26:42.339Z,6.90
2018-05-18T20:29:09.999Z,7.15
2018-05-18T20:31:37.307Z,7.30
2018-05-18T20:34:04.663Z,7.05
2018-05-18T20:36:32.270Z,7.68
2018-05-18T20:38:59.625Z,7.45
2018-05-18T20:41:26.963Z,7.15
2018-05-18T20:43:54.546Z,7.37
2018-05-18T20:46:22.097Z,8.13
2018-05-18T20:48:49.451Z,9.00
2018-05-18T20:51:16.817Z,7.20
2018-05-18T20:53:44.137Z,7.93
2018-05-18T20:56:11.728Z,8.30
2018-05-18T20:58:39.130Z,7.72
2018-05-18T21:01:06.409Z,7.55
2018-05-18T21:03:33.840Z,6.55
2018-05-18T21:06:01.118Z,7.03
2018-05-18T21:08:28.543Z,7.22
2018-05-18T21:10:55.883Z,8.57
2018-05-18T21:13:23.459Z,8.00
2018-05-18T21:15:50.812Z,8.40
2018-05-18T21:18:18.150Z,6.40
2018-05-18T21:20:45.791Z,7.30
2018-05-18T21:23:13.093Z,8.07
2018-05-18T21:25:40.425Z,7.70
2018-05-18T21:28:07.729Z,7.68
2018-05-18T21:30:35.090Z,7.93
2018-05-18T21:33:02.439Z,7.78
2018-05-18T21:35:29.760Z,8.45
2018-05-18T21:37:57.383Z,7.65
2018-05-18T21:40:24.718Z,8.70
2018-05-18T21:42:52.102Z,7.87
2018-05-18T21:45:19.459Z,7.80
2018-05-18T21:47:46.771Z,7.57
2018-05-18T21:50:14.464Z,8.70
2018-05-18T21:52:41.990Z,8.10
2018-05-18T21:55:09.343Z,8.68
2018-05-18T21:57:36.650Z,9.02
2018-05-18T22:00:04.035Z,10.40
2018-05-18T22:02:31.378Z,10.80
2018-05-18T22:04:58.697Z,9.00
2018-05-18T22:07:26.036Z,8.50
2018-05-18T22:09:53.365Z,8.02
2018-05-18T22:12:20.717Z,7.68
2018-05-18T22:14:48.041Z,6.90
2018-05-18T22:17:15.381Z,7.40
2018-05-18T22:19:42.749Z,7.15
2018-05-18T22:22:10.084Z,7.70
2018-05-18T22:24:37.428Z,7.90
2018-05-18T22:27:04.803Z,8.40
2018-05-18T22:29:32.162Z,7.25
2018-05-18T22:31:59.509Z,8.00
2018-05-18T22:34:26.918Z,7.68
2018-05-18T22:36:54.518Z,7.30
2018-05-18T22:39:21.907Z,7.05
2018-05-18T22:41:49.210Z,7.30
2018-05-18T22:44:16.645Z,7.47
2018-05-18T22:46:44.248Z,8.00
2018-05-18T22:49:11.554Z,9.43
2018-05-18T22:51:38.929Z,8.43
2018-05-18T22:54:06.243Z,7.72
2018-05-18T22:56:33.589Z,8.32
2018-05-18T22:59:00.931Z,7.30
2018-05-18T23:01:28.336Z,8.65
2018-05-18T23:03:55.937Z,7.60
2018-05-18T23:06:23.531Z,7.65
2018-05-18T23:08:50.853Z,7.12
2018-05-18T23:11:18.247Z,6.90
2018-05-18T23:13:45.870Z,7.60
2018-05-18T23:16:13.234Z,7.27
2018-05-18T23:18:40.541Z,7.90
2018-05-18T23:21:07.890Z,7.50
2018-05-18T23:23:35.240Z,8.27
2018-05-18T23:26:02.561Z,7.70
2018-05-18T23:28:29.902Z,9.00
2018-05-18T23:30:57.256Z,8.55
2018-05-18T23:33:24.595Z,7.90
2018-05-18T23:35:51.978Z,6.95
2018-05-18T23:38:19.311Z,8.30
2018-05-18T23:40:46.877Z,8.65
2018-05-18T23:43:14.218Z,7.43
2018-05-18T23:45:41.798Z,8.60
2018-05-18T23:48:09.128Z,8.07
2018-05-18T23:50:36.500Z,7.90
2018-05-18T23:53:03.806Z,8.95
2018-05-18T23:55:31.179Z,7.67
2018-05-18T23:57:58.781Z,8.60
